Mozhga, Russia
Current Conditions -  °F | °C
As of 11:00 AM on Saturday 25 Oct 2014 (Local Time) from UWKE Reporting Station
Blowing Snow Blowing Snow  
Wind Chill:   Ceiling: Unl
Heat Index: 19°   Visibility: 6mi
Dew Point: 14°   Wind: 18mph
Humidity: 80%   Direction: 310°NW
Pressure: 30.18"   Gusts: 25mph
Location:  56.45°N, 52.19°E
Report Text: UWKE 250700Z 31008G11MPS 9999 DRSN SCT026CB M07/M10 Q1022 NOSIGRMK QFE750/0999 21090070
Loading
Personal Weather Stations






























Interactive Weather Map
Tropical Storm Tracking
New forecast layout! Learn more

10-Day Weather Forecast

Advertisements
Track Severe Weather on mobile